sensor_id;sensor_type;location;lat;lon;timestamp;P1;durP1;ratioP1;P2;durP2;ratioP2
32146;SDS011;32190;49.112;8.598;2022-11-06T00:04:44;1.15;;;1.10;;
32146;SDS011;32190;49.112;8.598;2022-11-06T00:10:34;2.10;;;1.30;;
32146;SDS011;32190;49.112;8.598;2022-11-06T00:16:25;1.98;;;1.33;;
32146;SDS011;32190;49.112;8.598;2022-11-06T00:22:25;1.52;;;1.10;;
32146;SDS011;32190;49.112;8.598;2022-11-06T00:28:16;2.20;;;1.10;;
32146;SDS011;32190;49.112;8.598;2022-11-06T00:34:08;1.10;;;1.00;;
32146;SDS011;32190;49.112;8.598;2022-11-06T00:40:02;0.95;;;0.95;;
32146;SDS011;32190;49.112;8.598;2022-11-06T00:46:33;1.77;;;0.90;;
32146;SDS011;32190;49.112;8.598;2022-11-06T00:52:26;0.98;;;0.95;;
32146;SDS011;32190;49.112;8.598;2022-11-06T00:58:18;1.35;;;1.25;;
32146;SDS011;32190;49.112;8.598;2022-11-06T01:04:13;1.02;;;1.02;;
32146;SDS011;32190;49.112;8.598;2022-11-06T01:10:08;1.00;;;1.00;;
32146;SDS011;32190;49.112;8.598;2022-11-06T01:15:59;1.58;;;0.88;;
32146;SDS011;32190;49.112;8.598;2022-11-06T01:21:50;0.98;;;0.95;;
32146;SDS011;32190;49.112;8.598;2022-11-06T01:27:42;1.20;;;1.10;;
32146;SDS011;32190;49.112;8.598;2022-11-06T01:33:32;1.38;;;1.27;;
32146;SDS011;32190;49.112;8.598;2022-11-06T01:39:23;2.30;;;1.20;;
32146;SDS011;32190;49.112;8.598;2022-11-06T01:45:23;1.02;;;1.02;;
32146;SDS011;32190;49.112;8.598;2022-11-06T01:51:21;1.30;;;1.20;;
32146;SDS011;32190;49.112;8.598;2022-11-06T01:57:15;0.80;;;0.80;;
32146;SDS011;32190;49.112;8.598;2022-11-06T02:03:06;1.35;;;1.25;;
32146;SDS011;32190;49.112;8.598;2022-11-06T02:08:57;1.88;;;0.75;;
32146;SDS011;32190;49.112;8.598;2022-11-06T02:27:14;1.25;;;1.15;;
32146;SDS011;32190;49.112;8.598;2022-11-06T02:33:14;1.20;;;1.10;;
32146;SDS011;32190;49.112;8.598;2022-11-06T02:39:12;1.20;;;1.20;;
32146;SDS011;32190;49.112;8.598;2022-11-06T02:45:06;1.70;;;1.60;;
32146;SDS011;32190;49.112;8.598;2022-11-06T02:51:00;1.48;;;1.38;;
32146;SDS011;32190;49.112;8.598;2022-11-06T02:56:53;1.27;;;1.27;;
32146;SDS011;32190;49.112;8.598;2022-11-06T03:08:51;1.25;;;1.15;;
32146;SDS011;32190;49.112;8.598;2022-11-06T03:14:59;1.10;;;1.10;;
32146;SDS011;32190;49.112;8.598;2022-11-06T03:21:00;1.50;;;1.40;;
32146;SDS011;32190;49.112;8.598;2022-11-06T03:26:53;1.10;;;1.10;;
32146;SDS011;32190;49.112;8.598;2022-11-06T03:38:45;1.08;;;1.08;;
32146;SDS011;32190;49.112;8.598;2022-11-06T03:44:42;1.48;;;1.38;;
32146;SDS011;32190;49.112;8.598;2022-11-06T03:50:37;1.38;;;1.17;;
32146;SDS011;32190;49.112;8.598;2022-11-06T03:56:54;1.50;;;1.40;;
32146;SDS011;32190;49.112;8.598;2022-11-06T04:02:56;1.00;;;1.00;;
32146;SDS011;32190;49.112;8.598;2022-11-06T04:08:57;1.35;;;1.35;;
32146;SDS011;32190;49.112;8.598;2022-11-06T04:15:09;1.35;;;1.25;;
32146;SDS011;32190;49.112;8.598;2022-11-06T04:34:15;1.42;;;1.17;;
32146;SDS011;32190;49.112;8.598;2022-11-06T04:46:22;1.40;;;1.30;;
32146;SDS011;32190;49.112;8.598;2022-11-06T04:52:20;1.45;;;1.33;;
32146;SDS011;32190;49.112;8.598;2022-11-06T04:58:14;1.10;;;1.10;;
32146;SDS011;32190;49.112;8.598;2022-11-06T05:04:04;1.40;;;1.33;;
32146;SDS011;32190;49.112;8.598;2022-11-06T05:09:55;1.35;;;1.25;;
32146;SDS011;32190;49.112;8.598;2022-11-06T05:15:46;1.60;;;1.50;;
32146;SDS011;32190;49.112;8.598;2022-11-06T05:21:36;1.52;;;1.35;;
32146;SDS011;32190;49.112;8.598;2022-11-06T05:27:46;1.77;;;1.23;;
32146;SDS011;32190;49.112;8.598;2022-11-06T05:33:36;1.00;;;1.00;;
32146;SDS011;32190;49.112;8.598;2022-11-06T05:39:27;1.45;;;1.35;;
32146;SDS011;32190;49.112;8.598;2022-11-06T05:45:17;1.20;;;1.20;;
32146;SDS011;32190;49.112;8.598;2022-11-06T05:51:08;2.65;;;1.30;;
32146;SDS011;32190;49.112;8.598;2022-11-06T05:56:59;1.33;;;1.20;;
32146;SDS011;32190;49.112;8.598;2022-11-06T06:02:49;1.35;;;1.25;;
32146;SDS011;32190;49.112;8.598;2022-11-06T06:08:40;1.35;;;1.25;;
32146;SDS011;32190;49.112;8.598;2022-11-06T06:14:30;1.27;;;1.17;;
32146;SDS011;32190;49.112;8.598;2022-11-06T06:20:21;1.50;;;1.40;;
32146;SDS011;32190;49.112;8.598;2022-11-06T06:26:11;1.50;;;1.40;;
32146;SDS011;32190;49.112;8.598;2022-11-06T06:32:02;1.63;;;1.52;;
32146;SDS011;32190;49.112;8.598;2022-11-06T06:37:53;1.75;;;1.65;;
32146;SDS011;32190;49.112;8.598;2022-11-06T06:43:46;1.40;;;1.30;;
32146;SDS011;32190;49.112;8.598;2022-11-06T06:49:38;1.40;;;1.30;;
32146;SDS011;32190;49.112;8.598;2022-11-06T06:55:28;1.13;;;1.13;;
32146;SDS011;32190;49.112;8.598;2022-11-06T07:01:19;1.98;;;1.17;;
32146;SDS011;32190;49.112;8.598;2022-11-06T07:07:10;1.67;;;1.35;;
32146;SDS011;32190;49.112;8.598;2022-11-06T07:13:01;1.45;;;1.35;;
32146;SDS011;32190;49.112;8.598;2022-11-06T07:18:55;1.35;;;1.25;;
32146;SDS011;32190;49.112;8.598;2022-11-06T07:24:45;1.42;;;1.33;;
32146;SDS011;32190;49.112;8.598;2022-11-06T07:30:36;1.30;;;1.20;;
32146;SDS011;32190;49.112;8.598;2022-11-06T07:36:26;1.85;;;1.75;;
32146;SDS011;32190;49.112;8.598;2022-11-06T07:42:17;1.65;;;1.55;;
32146;SDS011;32190;49.112;8.598;2022-11-06T07:48:08;1.80;;;1.70;;
32146;SDS011;32190;49.112;8.598;2022-11-06T07:53:58;1.98;;;1.88;;
32146;SDS011;32190;49.112;8.598;2022-11-06T07:59:49;1.48;;;1.38;;
32146;SDS011;32190;49.112;8.598;2022-11-06T08:05:39;1.35;;;1.25;;
32146;SDS011;32190;49.112;8.598;2022-11-06T08:11:30;1.67;;;1.27;;
32146;SDS011;32190;49.112;8.598;2022-11-06T08:17:21;1.60;;;1.50;;
32146;SDS011;32190;49.112;8.598;2022-11-06T08:23:12;2.88;;;1.70;;
32146;SDS011;32190;49.112;8.598;2022-11-06T08:29:02;1.30;;;1.30;;
32146;SDS011;32190;49.112;8.598;2022-11-06T08:34:53;1.73;;;1.63;;
32146;SDS011;32190;49.112;8.598;2022-11-06T08:40:43;1.27;;;1.20;;
32146;SDS011;32190;49.112;8.598;2022-11-06T08:46:34;1.20;;;1.20;;
32146;SDS011;32190;49.112;8.598;2022-11-06T08:52:24;1.65;;;1.55;;
32146;SDS011;32190;49.112;8.598;2022-11-06T08:58:15;1.65;;;1.55;;
32146;SDS011;32190;49.112;8.598;2022-11-06T09:04:06;1.48;;;1.38;;
32146;SDS011;32190;49.112;8.598;2022-11-06T09:10:04;1.30;;;1.20;;
32146;SDS011;32190;49.112;8.598;2022-11-06T09:15:55;1.70;;;1.60;;
32146;SDS011;32190;49.112;8.598;2022-11-06T09:21:45;2.30;;;1.90;;
32146;SDS011;32190;49.112;8.598;2022-11-06T09:27:46;2.28;;;2.08;;
32146;SDS011;32190;49.112;8.598;2022-11-06T09:33:38;1.35;;;1.25;;
32146;SDS011;32190;49.112;8.598;2022-11-06T09:39:29;1.60;;;1.50;;
32146;SDS011;32190;49.112;8.598;2022-11-06T09:45:20;2.25;;;1.23;;
32146;SDS011;32190;49.112;8.598;2022-11-06T09:51:16;0.90;;;0.90;;
32146;SDS011;32190;49.112;8.598;2022-11-06T09:57:20;1.50;;;1.40;;
32146;SDS011;32190;49.112;8.598;2022-11-06T10:03:28;1.10;;;1.10;;
32146;SDS011;32190;49.112;8.598;2022-11-06T10:09:29;1.55;;;1.45;;
32146;SDS011;32190;49.112;8.598;2022-11-06T10:15:26;1.05;;;1.05;;
32146;SDS011;32190;49.112;8.598;2022-11-06T10:21:32;1.88;;;0.98;;
32146;SDS011;32190;49.112;8.598;2022-11-06T10:46:29;0.70;;;0.70;;
32146;SDS011;32190;49.112;8.598;2022-11-06T10:58:22;0.95;;;0.95;;
32146;SDS011;32190;49.112;8.598;2022-11-06T11:04:17;1.00;;;1.00;;
32146;SDS011;32190;49.112;8.598;2022-11-06T11:10:25;1.85;;;1.00;;
32146;SDS011;32190;49.112;8.598;2022-11-06T11:22:38;0.80;;;0.80;;
32146;SDS011;32190;49.112;8.598;2022-11-06T11:34:21;1.17;;;0.90;;
32146;SDS011;32190;49.112;8.598;2022-11-06T11:40:36;1.48;;;1.20;;
32146;SDS011;32190;49.112;8.598;2022-11-06T11:46:28;1.00;;;0.90;;
32146;SDS011;32190;49.112;8.598;2022-11-06T11:52:19;0.90;;;0.90;;
32146;SDS011;32190;49.112;8.598;2022-11-06T11:58:29;1.10;;;1.10;;
32146;SDS011;32190;49.112;8.598;2022-11-06T12:04:26;0.90;;;0.90;;
32146;SDS011;32190;49.112;8.598;2022-11-06T12:10:26;1.25;;;1.20;;
32146;SDS011;32190;49.112;8.598;2022-11-06T12:16:20;0.98;;;0.95;;
32146;SDS011;32190;49.112;8.598;2022-11-06T12:22:15;1.20;;;1.10;;
32146;SDS011;32190;49.112;8.598;2022-11-06T12:28:16;1.20;;;1.10;;
32146;SDS011;32190;49.112;8.598;2022-11-06T12:34:19;1.05;;;0.98;;
32146;SDS011;32190;49.112;8.598;2022-11-06T12:40:34;1.02;;;0.93;;
32146;SDS011;32190;49.112;8.598;2022-11-06T12:59:08;1.00;;;1.00;;
32146;SDS011;32190;49.112;8.598;2022-11-06T13:17:25;0.90;;;0.90;;
32146;SDS011;32190;49.112;8.598;2022-11-06T13:23:27;0.98;;;0.93;;
32146;SDS011;32190;49.112;8.598;2022-11-06T13:29:23;1.05;;;1.05;;
32146;SDS011;32190;49.112;8.598;2022-11-06T13:35:16;1.05;;;0.80;;
32146;SDS011;32190;49.112;8.598;2022-11-06T13:53:53;1.40;;;1.00;;
32146;SDS011;32190;49.112;8.598;2022-11-06T14:06:21;0.90;;;0.90;;
32146;SDS011;32190;49.112;8.598;2022-11-06T14:12:16;0.90;;;0.90;;
32146;SDS011;32190;49.112;8.598;2022-11-06T14:18:13;1.10;;;1.10;;
32146;SDS011;32190;49.112;8.598;2022-11-06T14:42:14;0.98;;;0.95;;
32146;SDS011;32190;49.112;8.598;2022-11-06T14:48:06;1.05;;;1.02;;
32146;SDS011;32190;49.112;8.598;2022-11-06T14:54:03;0.93;;;0.85;;
32146;SDS011;32190;49.112;8.598;2022-11-06T15:00:05;0.80;;;0.80;;
32146;SDS011;32190;49.112;8.598;2022-11-06T15:12:18;1.58;;;1.08;;
32146;SDS011;32190;49.112;8.598;2022-11-06T15:18:47;0.75;;;0.70;;
32146;SDS011;32190;49.112;8.598;2022-11-06T15:24:41;0.70;;;0.70;;
32146;SDS011;32190;49.112;8.598;2022-11-06T15:30:39;0.82;;;0.80;;
32146;SDS011;32190;49.112;8.598;2022-11-06T15:36:39;1.17;;;0.80;;
32146;SDS011;32190;49.112;8.598;2022-11-06T15:42:35;0.90;;;0.90;;
32146;SDS011;32190;49.112;8.598;2022-11-06T15:48:26;0.70;;;0.70;;
32146;SDS011;32190;49.112;8.598;2022-11-06T15:54:37;0.70;;;0.70;;
32146;SDS011;32190;49.112;8.598;2022-11-06T16:00:31;0.65;;;0.55;;
32146;SDS011;32190;49.112;8.598;2022-11-06T16:06:24;0.70;;;0.70;;
32146;SDS011;32190;49.112;8.598;2022-11-06T16:12:16;1.08;;;0.95;;
32146;SDS011;32190;49.112;8.598;2022-11-06T16:18:10;1.02;;;0.93;;
32146;SDS011;32190;49.112;8.598;2022-11-06T16:24:03;0.60;;;0.60;;
32146;SDS011;32190;49.112;8.598;2022-11-06T16:35:53;1.13;;;1.02;;
32146;SDS011;32190;49.112;8.598;2022-11-06T16:59:53;1.60;;;1.30;;
32146;SDS011;32190;49.112;8.598;2022-11-06T17:05:50;1.02;;;0.93;;
32146;SDS011;32190;49.112;8.598;2022-11-06T17:11:46;1.63;;;1.13;;
32146;SDS011;32190;49.112;8.598;2022-11-06T17:17:40;1.23;;;1.13;;
32146;SDS011;32190;49.112;8.598;2022-11-06T17:23:32;1.45;;;1.35;;
32146;SDS011;32190;49.112;8.598;2022-11-06T17:29:23;1.75;;;1.65;;
32146;SDS011;32190;49.112;8.598;2022-11-06T17:35:13;2.05;;;1.92;;
32146;SDS011;32190;49.112;8.598;2022-11-06T17:41:04;6.15;;;3.25;;
32146;SDS011;32190;49.112;8.598;2022-11-06T17:46:54;9.20;;;4.65;;
32146;SDS011;32190;49.112;8.598;2022-11-06T17:52:45;2.58;;;2.25;;
32146;SDS011;32190;49.112;8.598;2022-11-06T17:58:36;2.03;;;1.45;;
32146;SDS011;32190;49.112;8.598;2022-11-06T18:04:27;1.52;;;1.42;;
32146;SDS011;32190;49.112;8.598;2022-11-06T18:10:23;1.58;;;1.23;;
32146;SDS011;32190;49.112;8.598;2022-11-06T18:16:17;1.25;;;1.15;;
32146;SDS011;32190;49.112;8.598;2022-11-06T18:22:17;2.22;;;1.20;;
32146;SDS011;32190;49.112;8.598;2022-11-06T18:28:11;1.20;;;1.08;;
32146;SDS011;32190;49.112;8.598;2022-11-06T18:34:14;1.50;;;1.40;;
32146;SDS011;32190;49.112;8.598;2022-11-06T19:06:16;1.65;;;1.48;;
32146;SDS011;32190;49.112;8.598;2022-11-06T19:19:04;2.13;;;1.42;;
32146;SDS011;32190;49.112;8.598;2022-11-06T19:25:08;1.73;;;1.30;;
32146;SDS011;32190;49.112;8.598;2022-11-06T19:31:19;1.38;;;1.27;;
32146;SDS011;32190;49.112;8.598;2022-11-06T19:37:17;1.15;;;1.05;;
32146;SDS011;32190;49.112;8.598;2022-11-06T19:43:08;1.20;;;1.20;;
32146;SDS011;32190;49.112;8.598;2022-11-06T19:55:18;1.00;;;1.00;;
32146;SDS011;32190;49.112;8.598;2022-11-06T20:01:10;1.25;;;1.15;;
32146;SDS011;32190;49.112;8.598;2022-11-06T20:07:04;1.40;;;1.30;;
32146;SDS011;32190;49.112;8.598;2022-11-06T20:12:55;1.30;;;1.20;;
32146;SDS011;32190;49.112;8.598;2022-11-06T20:18:55;0.90;;;0.90;;
32146;SDS011;32190;49.112;8.598;2022-11-06T20:24:47;0.90;;;0.90;;
32146;SDS011;32190;49.112;8.598;2022-11-06T20:30:38;0.80;;;0.80;;
32146;SDS011;32190;49.112;8.598;2022-11-06T20:36:31;0.93;;;0.90;;
32146;SDS011;32190;49.112;8.598;2022-11-06T20:42:33;0.70;;;0.70;;
32146;SDS011;32190;49.112;8.598;2022-11-06T20:48:37;0.75;;;0.75;;
32146;SDS011;32190;49.112;8.598;2022-11-06T20:54:37;0.50;;;0.50;;
32146;SDS011;32190;49.112;8.598;2022-11-06T21:00:30;0.80;;;0.50;;
32146;SDS011;32190;49.112;8.598;2022-11-06T21:06:21;0.65;;;0.65;;
32146;SDS011;32190;49.112;8.598;2022-11-06T21:12:21;0.52;;;0.52;;
32146;SDS011;32190;49.112;8.598;2022-11-06T21:18:12;1.42;;;0.85;;
32146;SDS011;32190;49.112;8.598;2022-11-06T21:24:03;1.00;;;1.00;;
32146;SDS011;32190;49.112;8.598;2022-11-06T21:29:54;2.35;;;1.20;;
32146;SDS011;32190;49.112;8.598;2022-11-06T21:36:06;0.70;;;0.70;;
32146;SDS011;32190;49.112;8.598;2022-11-06T21:42:05;0.93;;;0.93;;
32146;SDS011;32190;49.112;8.598;2022-11-06T21:48:04;0.95;;;0.88;;
32146;SDS011;32190;49.112;8.598;2022-11-06T21:54:09;0.80;;;0.80;;
32146;SDS011;32190;49.112;8.598;2022-11-06T22:00:19;0.82;;;0.82;;
32146;SDS011;32190;49.112;8.598;2022-11-06T22:06:12;0.63;;;0.63;;
32146;SDS011;32190;49.112;8.598;2022-11-06T22:12:12;1.20;;;0.88;;
32146;SDS011;32190;49.112;8.598;2022-11-06T22:18:03;0.70;;;0.70;;
32146;SDS011;32190;49.112;8.598;2022-11-06T22:23:56;1.85;;;0.82;;
32146;SDS011;32190;49.112;8.598;2022-11-06T22:29:49;0.65;;;0.65;;
32146;SDS011;32190;49.112;8.598;2022-11-06T22:35:40;0.50;;;0.50;;
32146;SDS011;32190;49.112;8.598;2022-11-06T22:41:30;0.68;;;0.68;;
32146;SDS011;32190;49.112;8.598;2022-11-06T22:47:21;0.60;;;0.60;;
32146;SDS011;32190;49.112;8.598;2022-11-06T22:53:12;0.98;;;0.80;;
32146;SDS011;32190;49.112;8.598;2022-11-06T22:59:03;0.90;;;0.90;;
32146;SDS011;32190;49.112;8.598;2022-11-06T23:04:57;0.63;;;0.63;;
32146;SDS011;32190;49.112;8.598;2022-11-06T23:10:48;0.45;;;0.45;;
32146;SDS011;32190;49.112;8.598;2022-11-06T23:16:39;0.50;;;0.50;;
32146;SDS011;32190;49.112;8.598;2022-11-06T23:22:49;0.55;;;0.55;;
32146;SDS011;32190;49.112;8.598;2022-11-06T23:28:41;0.40;;;0.40;;
32146;SDS011;32190;49.112;8.598;2022-11-06T23:34:34;0.50;;;0.50;;
32146;SDS011;32190;49.112;8.598;2022-11-06T23:40:25;1.65;;;0.60;;
32146;SDS011;32190;49.112;8.598;2022-11-06T23:46:26;0.50;;;0.50;;
32146;SDS011;32190;49.112;8.598;2022-11-06T23:52:18;0.55;;;0.55;;
32146;SDS011;32190;49.112;8.598;2022-11-06T23:58:08;0.57;;;0.57;;
